sensor_id;sensor_type;location;lat;lon;timestamp;temperature;humidity
77218;DHT22;66214;51.302;17.068;2023-12-07T05:03:40;0.97;94.62
77218;DHT22;66214;51.302;17.068;2023-12-07T05:06:08;0.97;94.51
77218;DHT22;66214;51.302;17.068;2023-12-07T05:12:09;0.88;94.50
77218;DHT22;66214;51.302;17.068;2023-12-07T05:14:37;0.79;94.51
77218;DHT22;66214;51.302;17.068;2023-12-07T05:17:05;0.70;94.51
77218;DHT22;66214;51.302;17.068;2023-12-07T05:19:33;0.65;94.61
77218;DHT22;66214;51.302;17.068;2023-12-07T05:22:01;0.60;94.63
77218;DHT22;66214;51.302;17.068;2023-12-07T05:24:29;0.57;94.59
77218;DHT22;66214;51.302;17.068;2023-12-07T05:26:59;0.54;94.77
77218;DHT22;66214;51.302;17.068;2023-12-07T05:29:28;0.48;94.78
77218;DHT22;66214;51.302;17.068;2023-12-07T05:31:56;0.44;94.80
77218;DHT22;66214;51.302;17.068;2023-12-07T05:34:24;0.44;94.90
77218;DHT22;66214;51.302;17.068;2023-12-07T05:36:52;0.43;94.87
77218;DHT22;66214;51.302;17.068;2023-12-07T05:39:20;0.42;94.95
77218;DHT22;66214;51.302;17.068;2023-12-07T05:41:48;0.44;95.08
77218;DHT22;66214;51.302;17.068;2023-12-07T05:44:16;0.41;95.15
77218;DHT22;66214;51.302;17.068;2023-12-07T05:46:49;0.41;95.12
77218;DHT22;66214;51.302;17.068;2023-12-07T05:49:17;0.49;95.14
77218;DHT22;66214;51.302;17.068;2023-12-07T05:51:45;0.52;95.29
77218;DHT22;66214;51.302;17.068;2023-12-07T05:54:13;0.46;95.22
77218;DHT22;66214;51.302;17.068;2023-12-07T05:56:41;0.43;95.23
77218;DHT22;66214;51.302;17.068;2023-12-07T05:59:10;0.39;95.23
77218;DHT22;66214;51.302;17.068;2023-12-07T06:01:38;0.35;95.28
77218;DHT22;66214;51.302;17.068;2023-12-07T06:04:08;0.31;95.27
77218;DHT22;66214;51.302;17.068;2023-12-07T06:06:39;0.28;95.31
77218;DHT22;66214;51.302;17.068;2023-12-07T06:09:08;0.27;95.23
77218;DHT22;66214;51.302;17.068;2023-12-07T06:11:35;0.29;95.33
77218;DHT22;66214;51.302;17.068;2023-12-07T06:14:03;0.30;95.41
77218;DHT22;66214;51.302;17.068;2023-12-07T06:16:33;0.30;95.48
77218;DHT22;66214;51.302;17.068;2023-12-07T06:19:04;0.32;95.41
77218;DHT22;66214;51.302;17.068;2023-12-07T06:21:32;0.33;95.51
77218;DHT22;66214;51.302;17.068;2023-12-07T06:24:00;0.31;95.42
77218;DHT22;66214;51.302;17.068;2023-12-07T06:26:28;0.32;95.43
77218;DHT22;66214;51.302;17.068;2023-12-07T06:28:57;0.36;95.52
77218;DHT22;66214;51.302;17.068;2023-12-07T06:31:25;0.39;95.55
77218;DHT22;66214;51.302;17.068;2023-12-07T06:33:53;0.43;95.58
77218;DHT22;66214;51.302;17.068;2023-12-07T06:36:22;0.44;95.61
77218;DHT22;66214;51.302;17.068;2023-12-07T06:38:51;0.46;95.64
77218;DHT22;66214;51.302;17.068;2023-12-07T06:41:19;0.45;95.69
77218;DHT22;66214;51.302;17.068;2023-12-07T06:43:47;0.48;95.62
77218;DHT22;66214;51.302;17.068;2023-12-07T06:46:15;0.53;95.66
77218;DHT22;66214;51.302;17.068;2023-12-07T06:48:44;0.57;95.60
77218;DHT22;66214;51.302;17.068;2023-12-07T06:51:12;0.68;95.63
77218;DHT22;66214;51.302;17.068;2023-12-07T06:53:42;0.75;95.61
77218;DHT22;66214;51.302;17.068;2023-12-07T06:56:10;0.83;95.63
77218;DHT22;66214;51.302;17.068;2023-12-07T06:58:39;0.89;95.61
77218;DHT22;66214;51.302;17.068;2023-12-07T07:01:07;0.95;95.53
77218;DHT22;66214;51.302;17.068;2023-12-07T07:07:08;1.09;95.40
77218;DHT22;66214;51.302;17.068;2023-12-07T07:09:36;1.18;95.37
77218;DHT22;66214;51.302;17.068;2023-12-07T07:12:04;1.19;95.28
77218;DHT22;66214;51.302;17.068;2023-12-07T07:14:33;1.18;95.20
77218;DHT22;66214;51.302;17.068;2023-12-07T07:17:02;1.19;95.11
77218;DHT22;66214;51.302;17.068;2023-12-07T07:19:35;1.22;95.06
77218;DHT22;66214;51.302;17.068;2023-12-07T07:22:03;1.24;95.01
77218;DHT22;66214;51.302;17.068;2023-12-07T07:24:32;1.25;94.99
77218;DHT22;66214;51.302;17.068;2023-12-07T07:27:00;1.27;94.98
77218;DHT22;66214;51.302;17.068;2023-12-07T07:29:28;1.27;94.97
77218;DHT22;66214;51.302;17.068;2023-12-07T07:31:56;1.25;94.98
77218;DHT22;66214;51.302;17.068;2023-12-07T07:34:24;1.25;94.94
77218;DHT22;66214;51.302;17.068;2023-12-07T07:36:52;1.23;94.95
77218;DHT22;66214;51.302;17.068;2023-12-07T07:39:20;1.19;94.93
77218;DHT22;66214;51.302;17.068;2023-12-07T07:41:48;1.18;95.00
77218;DHT22;66214;51.302;17.068;2023-12-07T07:44:16;1.18;94.99
77218;DHT22;66214;51.302;17.068;2023-12-07T07:46:44;1.16;95.00
77218;DHT22;66214;51.302;17.068;2023-12-07T07:49:13;1.09;94.98
77218;DHT22;66214;51.302;17.068;2023-12-07T07:51:41;1.04;95.08
77218;DHT22;66214;51.302;17.068;2023-12-07T07:54:09;1.02;95.13
77218;DHT22;66214;51.302;17.068;2023-12-07T07:56:37;1.00;95.37
77218;DHT22;66214;51.302;17.068;2023-12-07T07:59:06;1.01;95.40
77218;DHT22;66214;51.302;17.068;2023-12-07T08:03:40;1.02;95.59
77218;DHT22;66214;51.302;17.068;2023-12-07T08:06:08;1.05;95.45
77218;DHT22;66214;51.302;17.068;2023-12-07T08:08:36;1.05;95.47
77218;DHT22;66214;51.302;17.068;2023-12-07T08:11:06;1.05;95.55
77218;DHT22;66214;51.302;17.068;2023-12-07T08:13:34;1.03;95.53
77218;DHT22;66214;51.302;17.068;2023-12-07T08:16:02;1.05;95.44
77218;DHT22;66214;51.302;17.068;2023-12-07T08:18:31;1.05;95.50
77218;DHT22;66214;51.302;17.068;2023-12-07T08:20:59;1.11;95.62
77218;DHT22;66214;51.302;17.068;2023-12-07T08:23:27;1.17;95.61
77218;DHT22;66214;51.302;17.068;2023-12-07T08:25:54;1.22;95.55
77218;DHT22;66214;51.302;17.068;2023-12-07T08:28:24;1.24;95.58
77218;DHT22;66214;51.302;17.068;2023-12-07T08:30:52;1.26;95.61
77218;DHT22;66214;51.302;17.068;2023-12-07T08:33:20;1.26;95.55
77218;DHT22;66214;51.302;17.068;2023-12-07T08:35:49;1.24;95.51
77218;DHT22;66214;51.302;17.068;2023-12-07T08:38:22;1.23;95.50
77218;DHT22;66214;51.302;17.068;2023-12-07T08:40:50;1.21;95.51
77218;DHT22;66214;51.302;17.068;2023-12-07T08:43:22;1.18;95.52
77218;DHT22;66214;51.302;17.068;2023-12-07T08:45:51;1.19;95.66
77218;DHT22;66214;51.302;17.068;2023-12-07T08:48:19;1.24;95.64
77218;DHT22;66214;51.302;17.068;2023-12-07T08:54:04;1.36;95.64
77218;DHT22;66214;51.302;17.068;2023-12-07T08:56:35;1.39;95.69
77218;DHT22;66214;51.302;17.068;2023-12-07T08:59:04;1.44;95.76
77218;DHT22;66214;51.302;17.068;2023-12-07T09:01:38;1.45;95.61
77218;DHT22;66214;51.302;17.068;2023-12-07T09:04:08;1.47;95.61
77218;DHT22;66214;51.302;17.068;2023-12-07T09:06:36;1.49;95.66
77218;DHT22;66214;51.302;17.068;2023-12-07T09:09:08;1.55;95.64
77218;DHT22;66214;51.302;17.068;2023-12-07T09:11:39;1.63;95.69
77218;DHT22;66214;51.302;17.068;2023-12-07T09:14:14;1.63;95.63
77218;DHT22;66214;51.302;17.068;2023-12-07T09:16:43;1.62;95.56
77218;DHT22;66214;51.302;17.068;2023-12-07T09:19:17;1.67;95.60
77218;DHT22;66214;51.302;17.068;2023-12-07T09:21:46;1.73;95.59
77218;DHT22;66214;51.302;17.068;2023-12-07T09:24:14;1.73;95.56
77218;DHT22;66214;51.302;17.068;2023-12-07T09:26:42;1.70;95.41
77218;DHT22;66214;51.302;17.068;2023-12-07T09:29:11;1.70;95.48
77218;DHT22;66214;51.302;17.068;2023-12-07T09:31:39;1.71;95.40
77218;DHT22;66214;51.302;17.068;2023-12-07T09:34:07;1.72;95.50
77218;DHT22;66214;51.302;17.068;2023-12-07T09:36:36;1.74;95.53
77218;DHT22;66214;51.302;17.068;2023-12-07T09:39:04;1.80;95.58
77218;DHT22;66214;51.302;17.068;2023-12-07T09:41:32;1.88;95.67
77218;DHT22;66214;51.302;17.068;2023-12-07T09:44:01;1.83;95.31
77218;DHT22;66214;51.302;17.068;2023-12-07T09:46:29;1.83;95.44
77218;DHT22;66214;51.302;17.068;2023-12-07T09:48:59;1.83;95.40
77218;DHT22;66214;51.302;17.068;2023-12-07T09:51:27;1.79;95.39
77218;DHT22;66214;51.302;17.068;2023-12-07T09:53:57;1.75;95.38
77218;DHT22;66214;51.302;17.068;2023-12-07T09:56:25;1.79;95.61
77218;DHT22;66214;51.302;17.068;2023-12-07T09:58:53;1.80;95.52
77218;DHT22;66214;51.302;17.068;2023-12-07T10:01:21;1.78;95.45
77218;DHT22;66214;51.302;17.068;2023-12-07T10:06:53;1.77;95.48
77218;DHT22;66214;51.302;17.068;2023-12-07T10:09:22;1.82;95.43
77218;DHT22;66214;51.302;17.068;2023-12-07T10:12:01;1.88;95.51
77218;DHT22;66214;51.302;17.068;2023-12-07T10:14:31;1.96;95.51
77218;DHT22;66214;51.302;17.068;2023-12-07T10:17:01;1.95;95.48
77218;DHT22;66214;51.302;17.068;2023-12-07T10:19:29;1.90;95.35
77218;DHT22;66214;51.302;17.068;2023-12-07T10:21:57;1.85;95.37
77218;DHT22;66214;51.302;17.068;2023-12-07T10:24:25;1.85;95.43
77218;DHT22;66214;51.302;17.068;2023-12-07T10:26:55;1.91;95.51
77218;DHT22;66214;51.302;17.068;2023-12-07T10:29:24;1.97;95.45
77218;DHT22;66214;51.302;17.068;2023-12-07T10:31:59;2.03;95.48
77218;DHT22;66214;51.302;17.068;2023-12-07T10:34:32;2.07;95.47
77218;DHT22;66214;51.302;17.068;2023-12-07T10:37:04;2.06;95.41
77218;DHT22;66214;51.302;17.068;2023-12-07T10:39:32;2.04;95.37
77218;DHT22;66214;51.302;17.068;2023-12-07T10:42:03;2.02;95.26
77218;DHT22;66214;51.302;17.068;2023-12-07T10:44:41;1.98;95.21
77218;DHT22;66214;51.302;17.068;2023-12-07T10:47:13;1.96;95.24
77218;DHT22;66214;51.302;17.068;2023-12-07T10:53:29;2.04;95.36
77218;DHT22;66214;51.302;17.068;2023-12-07T10:56:36;2.07;95.33
77218;DHT22;66214;51.302;17.068;2023-12-07T11:03:40;2.13;95.38
77218;DHT22;66214;51.302;17.068;2023-12-07T11:06:11;2.14;95.32
77218;DHT22;66214;51.302;17.068;2023-12-07T11:08:42;2.16;95.29
77218;DHT22;66214;51.302;17.068;2023-12-07T11:11:29;2.16;95.28
77218;DHT22;66214;51.302;17.068;2023-12-07T11:14:10;2.19;95.28
77218;DHT22;66214;51.302;17.068;2023-12-07T11:16:42;2.22;95.33
77218;DHT22;66214;51.302;17.068;2023-12-07T11:21:59;2.18;95.13
77218;DHT22;66214;51.302;17.068;2023-12-07T11:24:28;2.14;95.15
77218;DHT22;66214;51.302;17.068;2023-12-07T11:26:58;2.12;95.21
77218;DHT22;66214;51.302;17.068;2023-12-07T11:29:30;2.07;95.14
77218;DHT22;66214;51.302;17.068;2023-12-07T11:32:03;2.06;95.25
77218;DHT22;66214;51.302;17.068;2023-12-07T11:34:35;2.00;95.12
77218;DHT22;66214;51.302;17.068;2023-12-07T11:37:05;1.99;95.28
77218;DHT22;66214;51.302;17.068;2023-12-07T11:39:35;1.98;95.33
77218;DHT22;66214;51.302;17.068;2023-12-07T11:42:06;1.96;95.31
77218;DHT22;66214;51.302;17.068;2023-12-07T11:44:38;2.02;95.39
77218;DHT22;66214;51.302;17.068;2023-12-07T11:47:08;2.07;95.48
77218;DHT22;66214;51.302;17.068;2023-12-07T11:49:37;2.10;95.46
77218;DHT22;66214;51.302;17.068;2023-12-07T11:52:18;2.12;95.51
77218;DHT22;66214;51.302;17.068;2023-12-07T11:54:49;2.16;95.48
77218;DHT22;66214;51.302;17.068;2023-12-07T12:00:47;2.22;95.54
77218;DHT22;66214;51.302;17.068;2023-12-07T12:03:15;2.18;95.36
77218;DHT22;66214;51.302;17.068;2023-12-07T12:05:43;2.12;95.28
77218;DHT22;66214;51.302;17.068;2023-12-07T12:08:13;2.06;95.25
77218;DHT22;66214;51.302;17.068;2023-12-07T12:10:42;2.05;95.30
77218;DHT22;66214;51.302;17.068;2023-12-07T12:13:15;2.09;95.30
77218;DHT22;66214;51.302;17.068;2023-12-07T12:15:44;2.12;95.36
77218;DHT22;66214;51.302;17.068;2023-12-07T12:18:16;2.13;95.32
77218;DHT22;66214;51.302;17.068;2023-12-07T12:20:45;2.15;95.27
77218;DHT22;66214;51.302;17.068;2023-12-07T12:23:13;2.15;95.24
77218;DHT22;66214;51.302;17.068;2023-12-07T12:25:41;2.17;95.22
77218;DHT22;66214;51.302;17.068;2023-12-07T12:28:10;2.19;95.21
77218;DHT22;66214;51.302;17.068;2023-12-07T12:30:39;2.16;95.18
77218;DHT22;66214;51.302;17.068;2023-12-07T12:33:08;2.12;95.21
77218;DHT22;66214;51.302;17.068;2023-12-07T12:35:36;2.11;95.21
77218;DHT22;66214;51.302;17.068;2023-12-07T12:38:08;2.07;95.06
77218;DHT22;66214;51.302;17.068;2023-12-07T12:40:38;2.05;95.24
77218;DHT22;66214;51.302;17.068;2023-12-07T12:43:09;2.08;95.32
77218;DHT22;66214;51.302;17.068;2023-12-07T12:45:38;2.12;95.50
77218;DHT22;66214;51.302;17.068;2023-12-07T12:48:06;2.08;95.39
77218;DHT22;66214;51.302;17.068;2023-12-07T12:50:36;2.01;95.34
77218;DHT22;66214;51.302;17.068;2023-12-07T12:53:06;2.01;95.26
77218;DHT22;66214;51.302;17.068;2023-12-07T12:55:38;2.01;95.26
77218;DHT22;66214;51.302;17.068;2023-12-07T12:58:09;2.04;95.42
77218;DHT22;66214;51.302;17.068;2023-12-07T13:00:38;2.08;95.60
77218;DHT22;66214;51.302;17.068;2023-12-07T13:03:07;2.07;95.58
77218;DHT22;66214;51.302;17.068;2023-12-07T13:05:36;2.08;95.57
77218;DHT22;66214;51.302;17.068;2023-12-07T13:08:05;2.14;95.49
77218;DHT22;66214;51.302;17.068;2023-12-07T13:10:33;2.14;95.58
77218;DHT22;66214;51.302;17.068;2023-12-07T13:13:02;2.07;95.50
77218;DHT22;66214;51.302;17.068;2023-12-07T13:15:39;2.02;95.52
77218;DHT22;66214;51.302;17.068;2023-12-07T13:18:07;2.00;95.60
77218;DHT22;66214;51.302;17.068;2023-12-07T13:20:35;1.99;95.61
77218;DHT22;66214;51.302;17.068;2023-12-07T13:23:04;1.99;95.63
77218;DHT22;66214;51.302;17.068;2023-12-07T13:25:34;2.02;95.80
77218;DHT22;66214;51.302;17.068;2023-12-07T13:28:02;2.03;95.77
77218;DHT22;66214;51.302;17.068;2023-12-07T13:30:33;2.08;95.77
77218;DHT22;66214;51.302;17.068;2023-12-07T13:33:03;2.07;95.67
77218;DHT22;66214;51.302;17.068;2023-12-07T13:35:35;2.02;95.64
77218;DHT22;66214;51.302;17.068;2023-12-07T13:38:04;1.97;95.58
77218;DHT22;66214;51.302;17.068;2023-12-07T13:40:32;1.93;95.52
77218;DHT22;66214;51.302;17.068;2023-12-07T13:43:03;1.90;95.64
77218;DHT22;66214;51.302;17.068;2023-12-07T13:45:31;1.87;95.65
77218;DHT22;66214;51.302;17.068;2023-12-07T13:48:03;1.89;95.68
77218;DHT22;66214;51.302;17.068;2023-12-07T13:50:31;1.95;95.73
77218;DHT22;66214;51.302;17.068;2023-12-07T13:52:59;1.99;95.72
77218;DHT22;66214;51.302;17.068;2023-12-07T13:55:27;2.01;95.90
77218;DHT22;66214;51.302;17.068;2023-12-07T13:57:56;2.02;95.83
77218;DHT22;66214;51.302;17.068;2023-12-07T14:03:40;1.94;95.94
77218;DHT22;66214;51.302;17.068;2023-12-07T14:06:08;1.98;95.84
77218;DHT22;66214;51.302;17.068;2023-12-07T14:08:36;2.00;95.79
77218;DHT22;66214;51.302;17.068;2023-12-07T14:11:04;1.98;95.76
77218;DHT22;66214;51.302;17.068;2023-12-07T14:13:33;1.93;95.71
77218;DHT22;66214;51.302;17.068;2023-12-07T14:16:01;1.89;95.70
77218;DHT22;66214;51.302;17.068;2023-12-07T14:18:29;1.86;95.72
77218;DHT22;66214;51.302;17.068;2023-12-07T14:20:57;1.90;95.79
77218;DHT22;66214;51.302;17.068;2023-12-07T14:26:41;2.00;95.84
77218;DHT22;66214;51.302;17.068;2023-12-07T14:29:11;2.01;95.83
77218;DHT22;66214;51.302;17.068;2023-12-07T14:31:42;1.98;95.70
77218;DHT22;66214;51.302;17.068;2023-12-07T14:34:10;1.89;95.58
77218;DHT22;66214;51.302;17.068;2023-12-07T14:36:38;1.80;95.54
77218;DHT22;66214;51.302;17.068;2023-12-07T14:39:09;1.77;95.66
77218;DHT22;66214;51.302;17.068;2023-12-07T14:41:37;1.77;95.70
77218;DHT22;66214;51.302;17.068;2023-12-07T14:44:06;1.76;95.72
77218;DHT22;66214;51.302;17.068;2023-12-07T14:46:34;1.74;95.82
77218;DHT22;66214;51.302;17.068;2023-12-07T14:49:02;1.71;95.76
77218;DHT22;66214;51.302;17.068;2023-12-07T14:51:30;1.75;95.83
77218;DHT22;66214;51.302;17.068;2023-12-07T14:53:59;1.80;95.83
77218;DHT22;66214;51.302;17.068;2023-12-07T14:56:27;1.77;95.88
77218;DHT22;66214;51.302;17.068;2023-12-07T14:58:55;1.76;95.92
77218;DHT22;66214;51.302;17.068;2023-12-07T15:01:25;1.77;95.84
77218;DHT22;66214;51.302;17.068;2023-12-07T15:03:53;1.78;95.84
77218;DHT22;66214;51.302;17.068;2023-12-07T15:06:21;1.77;95.94
77218;DHT22;66214;51.302;17.068;2023-12-07T15:08:50;1.81;95.91
77218;DHT22;66214;51.302;17.068;2023-12-07T15:11:18;1.86;95.94
77218;DHT22;66214;51.302;17.068;2023-12-07T15:13:46;1.91;95.93
77218;DHT22;66214;51.302;17.068;2023-12-07T15:16:14;1.96;95.84
77218;DHT22;66214;51.302;17.068;2023-12-07T15:18:42;1.95;95.83
77218;DHT22;66214;51.302;17.068;2023-12-07T15:21:13;1.95;95.75
77218;DHT22;66214;51.302;17.068;2023-12-07T15:26:57;2.00;95.70
77218;DHT22;66214;51.302;17.068;2023-12-07T15:32:54;2.02;95.62
77218;DHT22;66214;51.302;17.068;2023-12-07T15:35:24;1.97;95.57
77218;DHT22;66214;51.302;17.068;2023-12-07T15:37:52;1.92;95.55
77218;DHT22;66214;51.302;17.068;2023-12-07T15:40:19;1.90;95.52
77218;DHT22;66214;51.302;17.068;2023-12-07T15:42:47;1.86;95.46
77218;DHT22;66214;51.302;17.068;2023-12-07T15:48:45;1.80;95.51
77218;DHT22;66214;51.302;17.068;2023-12-07T15:51:13;1.81;95.48
77218;DHT22;66214;51.302;17.068;2023-12-07T15:53:41;1.80;95.46
77218;DHT22;66214;51.302;17.068;2023-12-07T15:56:09;1.80;95.49
77218;DHT22;66214;51.302;17.068;2023-12-07T15:58:40;1.80;95.57
77218;DHT22;66214;51.302;17.068;2023-12-07T16:01:08;1.79;95.62
77218;DHT22;66214;51.302;17.068;2023-12-07T16:03:36;1.81;95.64
77218;DHT22;66214;51.302;17.068;2023-12-07T16:06:04;1.80;95.64
77218;DHT22;66214;51.302;17.068;2023-12-07T16:08:33;1.78;95.65
77218;DHT22;66214;51.302;17.068;2023-12-07T16:11:01;1.79;95.65
77218;DHT22;66214;51.302;17.068;2023-12-07T16:13:30;1.78;95.77
77218;DHT22;66214;51.302;17.068;2023-12-07T16:15:58;1.77;95.72
77218;DHT22;66214;51.302;17.068;2023-12-07T16:18:26;1.74;95.71
77218;DHT22;66214;51.302;17.068;2023-12-07T16:20:54;1.74;95.72
77218;DHT22;66214;51.302;17.068;2023-12-07T16:23:22;1.79;95.75
77218;DHT22;66214;51.302;17.068;2023-12-07T16:25:50;1.81;95.78
77218;DHT22;66214;51.302;17.068;2023-12-07T16:28:18;1.82;95.76
77218;DHT22;66214;51.302;17.068;2023-12-07T16:30:46;1.78;95.74
77218;DHT22;66214;51.302;17.068;2023-12-07T16:33:14;1.74;95.73
77218;DHT22;66214;51.302;17.068;2023-12-07T16:35:42;1.70;95.72
77218;DHT22;66214;51.302;17.068;2023-12-07T16:38:10;1.66;95.72
77218;DHT22;66214;51.302;17.068;2023-12-07T16:40:37;1.62;95.73
77218;DHT22;66214;51.302;17.068;2023-12-07T16:43:05;1.63;95.74
77218;DHT22;66214;51.302;17.068;2023-12-07T16:45:34;1.64;95.69
77218;DHT22;66214;51.302;17.068;2023-12-07T16:48:02;1.62;95.72
77218;DHT22;66214;51.302;17.068;2023-12-07T16:50:30;1.60;95.66
77218;DHT22;66214;51.302;17.068;2023-12-07T16:52:59;1.58;95.70
77218;DHT22;66214;51.302;17.068;2023-12-07T16:58:57;1.62;95.72
77218;DHT22;66214;51.302;17.068;2023-12-07T17:03:40;1.61;95.77
77218;DHT22;66214;51.302;17.068;2023-12-07T17:06:08;1.63;95.71
77218;DHT22;66214;51.302;17.068;2023-12-07T17:08:37;1.65;95.74
77218;DHT22;66214;51.302;17.068;2023-12-07T17:11:05;1.63;95.76
77218;DHT22;66214;51.302;17.068;2023-12-07T17:13:33;1.60;95.71
77218;DHT22;66214;51.302;17.068;2023-12-07T17:16:02;1.59;95.70
77218;DHT22;66214;51.302;17.068;2023-12-07T17:18:31;1.59;95.68
77218;DHT22;66214;51.302;17.068;2023-12-07T17:21:02;1.60;95.73
77218;DHT22;66214;51.302;17.068;2023-12-07T17:23:32;1.59;95.76
77218;DHT22;66214;51.302;17.068;2023-12-07T17:26:00;1.61;95.75
77218;DHT22;66214;51.302;17.068;2023-12-07T17:28:28;1.65;95.82
77218;DHT22;66214;51.302;17.068;2023-12-07T17:30:56;1.72;95.90
77218;DHT22;66214;51.302;17.068;2023-12-07T17:33:24;1.71;95.84
77218;DHT22;66214;51.302;17.068;2023-12-07T17:35:52;1.70;95.86
77218;DHT22;66214;51.302;17.068;2023-12-07T17:38:20;1.70;95.83
77218;DHT22;66214;51.302;17.068;2023-12-07T17:40:48;1.70;95.82
77218;DHT22;66214;51.302;17.068;2023-12-07T17:43:16;1.71;95.80
77218;DHT22;66214;51.302;17.068;2023-12-07T17:45:44;1.69;95.78
77218;DHT22;66214;51.302;17.068;2023-12-07T17:48:12;1.66;95.86
77218;DHT22;66214;51.302;17.068;2023-12-07T17:50:40;1.62;95.82
77218;DHT22;66214;51.302;17.068;2023-12-07T17:56:27;1.63;95.77
77218;DHT22;66214;51.302;17.068;2023-12-07T17:58:55;1.66;95.83
77218;DHT22;66214;51.302;17.068;2023-12-07T18:01:23;1.66;95.85
77218;DHT22;66214;51.302;17.068;2023-12-07T18:03:53;1.66;95.80
77218;DHT22;66214;51.302;17.068;2023-12-07T18:06:21;1.65;95.86
77218;DHT22;66214;51.302;17.068;2023-12-07T18:08:49;1.60;95.70
77218;DHT22;66214;51.302;17.068;2023-12-07T18:11:20;1.59;95.73
77218;DHT22;66214;51.302;17.068;2023-12-07T18:13:50;1.59;95.70
77218;DHT22;66214;51.302;17.068;2023-12-07T18:16:18;1.58;95.68
77218;DHT22;66214;51.302;17.068;2023-12-07T18:18:46;1.59;95.71
77218;DHT22;66214;51.302;17.068;2023-12-07T18:21:15;1.63;95.74
77218;DHT22;66214;51.302;17.068;2023-12-07T18:23:43;1.67;95.72
77218;DHT22;66214;51.302;17.068;2023-12-07T18:26:12;1.65;95.69
77218;DHT22;66214;51.302;17.068;2023-12-07T18:28:40;1.63;95.69
77218;DHT22;66214;51.302;17.068;2023-12-07T18:31:08;1.63;95.61
77218;DHT22;66214;51.302;17.068;2023-12-07T18:33:40;1.67;95.64
77218;DHT22;66214;51.302;17.068;2023-12-07T18:36:10;1.72;95.62
77218;DHT22;66214;51.302;17.068;2023-12-07T18:38:38;1.72;95.55
77218;DHT22;66214;51.302;17.068;2023-12-07T18:41:06;1.66;95.52
77218;DHT22;66214;51.302;17.068;2023-12-07T18:43:34;1.59;95.46
77218;DHT22;66214;51.302;17.068;2023-12-07T18:46:03;1.55;95.42
77218;DHT22;66214;51.302;17.068;2023-12-07T18:48:32;1.51;95.45
77218;DHT22;66214;51.302;17.068;2023-12-07T18:51:04;1.43;95.44
77218;DHT22;66214;51.302;17.068;2023-12-07T18:53:33;1.34;95.37
77218;DHT22;66214;51.302;17.068;2023-12-07T18:56:01;1.30;95.38
77218;DHT22;66214;51.302;17.068;2023-12-07T18:58:31;1.28;95.44
77218;DHT22;66214;51.302;17.068;2023-12-07T19:00:59;1.25;95.51
77218;DHT22;66214;51.302;17.068;2023-12-07T19:03:28;1.19;95.49
77218;DHT22;66214;51.302;17.068;2023-12-07T19:05:57;1.17;95.48
77218;DHT22;66214;51.302;17.068;2023-12-07T19:08:26;1.17;95.50
77218;DHT22;66214;51.302;17.068;2023-12-07T19:10:54;1.16;95.62
77218;DHT22;66214;51.302;17.068;2023-12-07T19:13:22;1.13;95.71
77218;DHT22;66214;51.302;17.068;2023-12-07T19:15:50;1.11;95.63
77218;DHT22;66214;51.302;17.068;2023-12-07T19:18:19;1.14;95.65
77218;DHT22;66214;51.302;17.068;2023-12-07T19:20:48;1.14;95.61
77218;DHT22;66214;51.302;17.068;2023-12-07T19:23:17;1.17;95.75
77218;DHT22;66214;51.302;17.068;2023-12-07T19:25:45;1.19;95.81
77218;DHT22;66214;51.302;17.068;2023-12-07T19:28:14;1.22;95.83
77218;DHT22;66214;51.302;17.068;2023-12-07T19:30:42;1.15;95.81
77218;DHT22;66214;51.302;17.068;2023-12-07T19:33:10;1.07;95.77
77218;DHT22;66214;51.302;17.068;2023-12-07T19:35:38;1.03;95.76
77218;DHT22;66214;51.302;17.068;2023-12-07T19:38:06;1.01;95.81
77218;DHT22;66214;51.302;17.068;2023-12-07T19:40:34;0.99;95.81
77218;DHT22;66214;51.302;17.068;2023-12-07T19:43:02;1.01;95.85
77218;DHT22;66214;51.302;17.068;2023-12-07T19:45:31;1.02;95.96
77218;DHT22;66214;51.302;17.068;2023-12-07T19:47:59;1.05;96.01
77218;DHT22;66214;51.302;17.068;2023-12-07T19:50:27;1.07;96.06
77218;DHT22;66214;51.302;17.068;2023-12-07T19:52:56;1.06;96.03
77218;DHT22;66214;51.302;17.068;2023-12-07T19:55:24;1.06;96.02
77218;DHT22;66214;51.302;17.068;2023-12-07T19:57:57;1.04;96.02
77218;DHT22;66214;51.302;17.068;2023-12-07T20:00:30;1.01;96.02
77218;DHT22;66214;51.302;17.068;2023-12-07T20:03:00;1.07;96.02
77218;DHT22;66214;51.302;17.068;2023-12-07T20:05:28;1.13;96.16
77218;DHT22;66214;51.302;17.068;2023-12-07T20:07:57;1.10;96.14
77218;DHT22;66214;51.302;17.068;2023-12-07T20:10:26;1.12;96.03
77218;DHT22;66214;51.302;17.068;2023-12-07T20:12:56;1.15;96.10
77218;DHT22;66214;51.302;17.068;2023-12-07T20:15:24;1.14;96.13
77218;DHT22;66214;51.302;17.068;2023-12-07T20:17:53;1.14;96.18
77218;DHT22;66214;51.302;17.068;2023-12-07T20:20:20;1.12;96.11
77218;DHT22;66214;51.302;17.068;2023-12-07T20:22:48;1.15;96.10
77218;DHT22;66214;51.302;17.068;2023-12-07T20:25:19;1.17;96.10
77218;DHT22;66214;51.302;17.068;2023-12-07T20:27:48;1.21;96.13
77218;DHT22;66214;51.302;17.068;2023-12-07T20:30:16;1.27;96.10
77218;DHT22;66214;51.302;17.068;2023-12-07T20:32:45;1.32;96.10
77218;DHT22;66214;51.302;17.068;2023-12-07T20:35:14;1.32;96.13
77218;DHT22;66214;51.302;17.068;2023-12-07T20:37:42;1.36;96.08
77218;DHT22;66214;51.302;17.068;2023-12-07T20:40:11;1.37;96.02
77218;DHT22;66214;51.302;17.068;2023-12-07T20:42:39;1.35;96.00
77218;DHT22;66214;51.302;17.068;2023-12-07T20:45:07;1.38;95.99
77218;DHT22;66214;51.302;17.068;2023-12-07T20:47:36;1.38;95.93
77218;DHT22;66214;51.302;17.068;2023-12-07T20:50:04;1.35;95.87
77218;DHT22;66214;51.302;17.068;2023-12-07T20:52:34;1.33;95.85
77218;DHT22;66214;51.302;17.068;2023-12-07T20:55:03;1.30;95.79
77218;DHT22;66214;51.302;17.068;2023-12-07T20:57:32;1.29;95.77
77218;DHT22;66214;51.302;17.068;2023-12-07T21:00:00;1.33;95.74
77218;DHT22;66214;51.302;17.068;2023-12-07T21:02:28;1.29;95.73
77218;DHT22;66214;51.302;17.068;2023-12-07T21:04:56;1.26;95.67
77218;DHT22;66214;51.302;17.068;2023-12-07T21:07:24;1.25;95.68
77218;DHT22;66214;51.302;17.068;2023-12-07T21:09:52;1.24;95.64
77218;DHT22;66214;51.302;17.068;2023-12-07T21:12:21;1.17;95.65
77218;DHT22;66214;51.302;17.068;2023-12-07T21:14:49;1.12;95.64
77218;DHT22;66214;51.302;17.068;2023-12-07T21:17:18;1.08;95.64
77218;DHT22;66214;51.302;17.068;2023-12-07T21:19:46;1.07;95.66
77218;DHT22;66214;51.302;17.068;2023-12-07T21:22:14;1.07;95.63
77218;DHT22;66214;51.302;17.068;2023-12-07T21:24:42;1.10;95.72
77218;DHT22;66214;51.302;17.068;2023-12-07T21:27:11;1.07;95.78
77218;DHT22;66214;51.302;17.068;2023-12-07T21:29:40;1.01;95.77
77218;DHT22;66214;51.302;17.068;2023-12-07T21:32:08;0.97;95.72
77218;DHT22;66214;51.302;17.068;2023-12-07T21:34:38;0.94;95.76
77218;DHT22;66214;51.302;17.068;2023-12-07T21:37:07;0.94;95.84
77218;DHT22;66214;51.302;17.068;2023-12-07T21:39:38;0.90;95.90